Time;durP1;ratioP1;P1;durP2;ratioP2;P2;SDS_P1;SDS_P2;PMS_P1;PMS_P2;Temp;Humidity;BMP_temperature;BMP_pressure;BME280_temperature;BME280_humidity;BME280_pressure;Samples;Min_cycle;Max_cycle;Signal;HPM_P1;HPM_P2
2022/09/25 00:01:03;;;;;;;2.92;1.60;;;15.70;99.90;;;;;;5034149;28;20409;-77
2022/09/25 00:03:31;;;;;;;2.45;1.60;;;15.70;99.90;;;;;;5034142;28;20390;-78
2022/09/25 00:06:02;;;;;;;2.50;1.70;;;15.90;99.90;;;;;;5034525;28;20366;-82
2022/09/25 00:08:29;;;;;;;3.35;1.80;;;16.10;99.90;;;;;;5034589;28;20484;-86
2022/09/25 00:10:56;;;;;;;3.20;2.30;;;16.20;99.90;;;;;;5034192;28;20758;-77
2022/09/25 00:13:24;;;;;;;4.05;2.75;;;16.30;99.90;;;;;;5034548;28;20790;-82
2022/09/25 00:15:56;;;;;;;4.40;2.77;;;16.40;99.90;;;;;;5033869;28;20447;-78
2022/09/25 00:21:13;;;;;;;3.15;2.40;;;16.60;99.90;;;;;;5033972;28;20401;-82
2022/09/25 00:23:46;;;;;;;3.20;1.50;;;17.10;99.90;;;;;;5034917;28;20419;-82
2022/09/25 00:26:16;;;;;;;2.60;1.80;;;17.50;99.90;;;;;;5032149;28;20393;-79
2022/09/25 00:28:43;;;;;;;2.97;1.57;;;17.50;99.90;;;;;;5034401;28;20483;-83
2022/09/25 00:31:13;;;;;;;2.35;1.52;;;17.50;99.90;;;;;;5039822;28;20516;-78
2022/09/25 00:33:40;;;;;;;2.93;1.70;;;17.70;99.90;;;;;;5039262;28;20448;-85
2022/09/25 00:36:09;;;;;;;3.13;1.83;;;17.90;99.90;;;;;;5041416;28;20385;-83
2022/09/25 00:38:37;;;;;;;2.40;1.40;;;17.90;99.90;;;;;;5037652;28;20429;-83
2022/09/25 00:41:07;;;;;;;3.25;1.40;;;17.90;99.90;;;;;;5035593;28;20538;-80
2022/09/25 00:43:49;;;;;;;1.90;1.10;;;18.00;99.90;;;;;;5033751;28;20381;-83
2022/09/25 00:46:45;;;;;;;2.20;1.20;;;18.30;99.90;;;;;;5030983;28;20373;-84
2022/09/25 00:49:20;;;;;;;1.95;1.33;;;18.50;99.90;;;;;;5035353;28;20885;-79
2022/09/25 00:51:57;;;;;;;1.60;1.30;;;18.80;99.90;;;;;;5035365;28;20435;-87
2022/09/25 00:54:32;;;;;;;2.28;1.40;;;19.00;99.90;;;;;;5034085;28;20408;-79
2022/09/25 00:57:05;;;;;;;3.15;1.50;;;19.00;99.50;;;;;;5034691;28;20415;-85
2022/09/25 00:59:42;;;;;;;1.58;1.10;;;19.00;99.90;;;;;;5036813;28;20377;-80
2022/09/25 01:02:15;;;;;;;1.85;1.20;;;19.10;98.40;;;;;;5033340;28;20369;-79
2022/09/25 01:04:44;;;;;;;1.83;1.20;;;19.10;98.20;;;;;;5034630;28;20366;-86
2022/09/25 01:07:13;;;;;;;1.60;1.20;;;19.20;96.00;;;;;;5035447;28;20422;-84
2022/09/25 01:09:40;;;;;;;1.38;1.10;;;19.10;97.00;;;;;;5037476;28;20385;-90
2022/09/25 01:12:09;;;;;;;1.88;1.17;;;19.10;97.60;;;;;;5039570;28;20514;-86
2022/09/25 01:14:38;;;;;;;2.08;1.10;;;19.30;98.00;;;;;;5017626;28;20402;-88
2022/09/25 01:17:34;;;;;;;1.67;1.13;;;19.50;96.00;;;;;;5037287;28;20378;-88
2022/09/25 01:20:31;;;;;;;2.07;1.23;;;19.50;93.60;;;;;;5034820;28;20377;-88
2022/09/25 01:23:37;;;;;;;1.48;1.20;;;19.50;93.30;;;;;;5035928;28;20376;-84
2022/09/25 01:26:10;;;;;;;1.60;1.30;;;19.70;93.90;;;;;;5034306;28;20372;-82
2022/09/25 01:28:52;;;;;;;1.73;1.27;;;20.30;92.40;;;;;;5032813;28;20402;-82
2022/09/25 01:31:34;;;;;;;1.05;0.98;;;20.90;90.50;;;;;;5033247;28;20377;-85
2022/09/25 01:34:22;;;;;;;1.40;1.10;;;21.50;85.50;;;;;;5033335;28;20400;-83
2022/09/25 01:37:17;;;;;;;1.55;1.40;;;21.80;83.70;;;;;;5033247;28;20374;-83
2022/09/25 01:40:04;;;;;;;1.20;1.10;;;22.10;82.50;;;;;;4972425;28;20957;-80
2022/09/25 01:43:04;;;;;;;1.23;1.13;;;22.90;78.80;;;;;;4973466;28;20867;-77
2022/09/25 01:45:49;;;;;;;6.50;3.30;;;23.80;77.20;;;;;;4898328;29;20384;-80
2022/09/25 01:48:20;;;;;;;5.00;2.70;;;24.70;70.60;;;;;;4901265;29;20474;-86
2022/09/25 01:50:53;;;;;;;1.50;1.10;;;25.30;68.20;;;;;;4899220;29;20445;-86
2022/09/25 01:53:27;;;;;;;1.90;1.05;;;25.70;63.80;;;;;;4897204;29;20400;-87
2022/09/25 01:56:05;;;;;;;1.52;1.00;;;25.90;59.50;;;;;;4896624;29;20449;-85
2022/09/25 01:58:42;;;;;;;1.63;1.00;;;26.10;58.30;;;;;;4897992;29;20381;-87
2022/09/25 02:01:21;;;;;;;1.35;0.90;;;26.20;60.20;;;;;;4897545;29;20933;-87
2022/09/25 02:04:13;;;;;;;2.83;1.35;;;26.90;59.50;;;;;;4902836;29;20823;-86
2022/09/25 02:06:44;;;;;;;2.27;1.10;;;26.80;57.80;;;;;;4901073;29;20479;-90
2022/09/25 02:09:18;;;;;;;1.98;1.20;;;26.90;57.80;;;;;;4901312;29;20413;-91
2022/09/25 02:11:50;;;;;;;1.15;0.90;;;27.50;55.90;;;;;;4900412;29;20420;-87
2022/09/25 02:14:34;;;;;;;3.00;1.10;;;27.70;53.90;;;;;;4899617;29;20481;-87
2022/09/25 02:17:05;;;;;;;1.30;1.00;;;27.30;52.30;;;;;;4922953;29;20870;-87
2022/09/25 02:22:22;;;;;;;1.05;1.00;;;26.80;53.00;;;;;;5003591;28;20911;-90
2022/09/25 02:25:10;;;;;;;3.05;1.02;;;26.70;54.30;;;;;;5038303;28;20429;-85
2022/09/25 02:27:37;;;;;;;2.67;1.10;;;26.80;54.30;;;;;;5019946;28;20877;-88
2022/09/25 02:30:05;;;;;;;1.27;0.93;;;27.10;53.80;;;;;;5037461;28;20422;-90
2022/09/25 02:32:33;;;;;;;0.93;0.80;;;27.60;54.40;;;;;;5036532;28;20423;-91
2022/09/25 02:35:00;;;;;;;1.30;0.80;;;28.40;52.20;;;;;;5020995;28;20425;-86
2022/09/25 02:37:28;;;;;;;3.83;0.90;;;29.20;50.60;;;;;;5038796;28;20377;-86
2022/09/25 02:39:59;;;;;;;1.23;0.80;;;29.70;49.80;;;;;;5036612;28;20396;-85
2022/09/25 02:42:52;;;;;;;2.10;0.80;;;29.50;48.80;;;;;;5035827;28;20374;-86
2022/09/25 02:45:37;;;;;;;0.90;0.70;;;29.70;47.20;;;;;;4974902;28;20393;-85
2022/09/25 02:48:14;;;;;;;0.70;0.70;;;29.80;46.50;;;;;;4974981;28;20390;-85
2022/09/25 02:51:05;;;;;;;0.82;0.70;;;29.70;45.40;;;;;;4975222;28;20395;-83
2022/09/25 02:53:49;;;;;;;1.75;0.70;;;29.80;47.20;;;;;;4974838;28;20394;-87
2022/09/25 02:56:41;;;;;;;2.10;0.80;;;29.30;46.70;;;;;;4974704;28;20398;-86
2022/09/25 02:59:32;;;;;;;0.95;0.73;;;29.20;47.10;;;;;;4974846;28;20378;-82
2022/09/25 03:02:00;;;;;;;2.35;0.90;;;29.10;44.70;;;;;;4974364;28;20855;-84
2022/09/25 03:04:31;;;;;;;1.52;1.10;;;28.40;47.50;;;;;;4974640;28;20386;-88
2022/09/25 03:06:58;;;;;;;2.30;0.80;;;28.10;47.40;;;;;;4974405;28;20375;-85
2022/09/25 03:09:25;;;;;;;1.60;0.85;;;28.80;49.80;;;;;;4974360;28;20415;-84
2022/09/25 03:11:53;;;;;;;0.80;0.80;;;29.80;47.80;;;;;;4974474;28;20387;-86
2022/09/25 03:14:21;;;;;;;1.00;0.80;;;30.70;45.60;;;;;;4974020;28;20379;-87
2022/09/25 03:16:56;;;;;;;0.80;0.80;;;30.30;45.60;;;;;;4974225;28;20382;-87
2022/09/25 03:19:27;;;;;;;1.10;0.70;;;30.20;45.70;;;;;;4973924;28;20383;-84
2022/09/25 03:21:54;;;;;;;0.95;0.70;;;30.50;45.70;;;;;;4995231;28;20461;-83
2022/09/25 03:24:21;;;;;;;1.10;0.70;;;31.40;44.50;;;;;;5034887;28;20384;-85
2022/09/25 03:26:48;;;;;;;3.10;0.80;;;32.20;42.80;;;;;;5034862;28;20410;-87
2022/09/25 03:29:16;;;;;;;1.05;0.80;;;32.70;40.50;;;;;;5034858;28;20411;-82
2022/09/25 03:31:44;;;;;;;1.15;0.80;;;32.10;41.80;;;;;;5034588;28;20397;-88
2022/09/25 03:34:16;;;;;;;1.02;0.80;;;32.30;41.20;;;;;;5034612;28;20386;-83
2022/09/25 03:36:46;;;;;;;0.80;0.80;;;32.70;41.70;;;;;;5035112;28;20370;-86
2022/09/25 03:39:16;;;;;;;0.82;0.70;;;32.90;39.70;;;;;;5035019;28;20382;-87
2022/09/25 03:41:43;;;;;;;0.70;0.70;;;30.60;39.80;;;;;;5034707;28;20404;-87
2022/09/25 03:44:11;;;;;;;1.42;0.82;;;29.60;43.20;;;;;;5034547;28;20386;-82
2022/09/25 03:46:38;;;;;;;0.90;0.70;;;29.30;41.60;;;;;;5034440;28;20381;-83
2022/09/25 03:49:05;;;;;;;1.35;0.70;;;29.20;43.40;;;;;;5034392;28;20448;-86
2022/09/25 03:51:34;;;;;;;0.90;0.70;;;29.60;43.90;;;;;;5034631;28;20378;-85
2022/09/25 03:54:01;;;;;;;0.77;0.70;;;30.90;42.00;;;;;;5034695;28;20756;-89
2022/09/25 03:56:29;;;;;;;0.60;0.60;;;32.00;40.90;;;;;;5035825;28;20458;-88
2022/09/25 03:58:57;;;;;;;0.65;0.65;;;32.60;39.10;;;;;;5034806;28;20377;-87
2022/09/25 04:01:25;;;;;;;0.83;0.60;;;32.70;37.90;;;;;;5035363;28;20861;-86
2022/09/25 04:03:53;;;;;;;0.60;0.60;;;32.90;38.40;;;;;;5036213;28;20373;-87
2022/09/25 04:06:24;;;;;;;1.33;0.90;;;33.30;38.40;;;;;;5035341;28;20710;-84
2022/09/25 04:08:56;;;;;;;0.93;0.70;;;33.40;38.50;;;;;;5035043;28;20405;-84
2022/09/25 04:11:24;;;;;;;0.65;0.65;;;33.70;39.20;;;;;;5035131;28;20449;-85
2022/09/25 04:13:51;;;;;;;1.02;0.80;;;33.30;38.60;;;;;;5034324;28;20380;-86
2022/09/25 04:16:19;;;;;;;1.50;1.00;;;32.90;38.70;;;;;;5036817;28;20385;-86
2022/09/25 04:18:47;;;;;;;0.83;0.70;;;32.30;37.60;;;;;;5018624;28;20746;-86
2022/09/25 04:21:15;;;;;;;1.30;0.70;;;32.10;39.20;;;;;;5038959;28;20365;-88
2022/09/25 04:24:46;;;;;;;0.80;0.80;;;32.80;39.30;;;;;;5036890;28;20373;-89
2022/09/25 04:26:30;;;;;;;0.80;0.80;;;33.40;38.00;;;;;;5033618;28;20734;-83
2022/09/25 04:29:00;;;;;;;0.60;0.60;;;33.40;37.20;;;;;;5034388;28;20401;-89
2022/09/25 04:31:31;;;;;;;1.00;0.80;;;33.40;38.00;;;;;;5035680;28;20964;-82
2022/09/25 04:33:58;;;;;;;0.98;0.88;;;33.60;37.70;;;;;;5035445;28;20377;-87
2022/09/25 04:36:25;;;;;;;1.47;1.17;;;32.60;38.00;;;;;;5034222;28;20374;-88
2022/09/25 04:38:52;;;;;;;0.80;0.70;;;32.10;38.60;;;;;;5033997;28;20404;-89
2022/09/25 04:41:20;;;;;;;0.60;0.60;;;31.90;38.70;;;;;;5034112;28;20540;-90
2022/09/25 04:43:47;;;;;;;0.70;0.70;;;31.90;36.90;;;;;;5034403;28;20377;-88
2022/09/25 04:46:16;;;;;;;1.90;0.77;;;31.40;38.40;;;;;;5034050;28;20385;-87
2022/09/25 04:48:46;;;;;;;1.80;0.80;;;30.90;38.40;;;;;;5033682;28;20407;-89
2022/09/25 04:51:13;;;;;;;0.93;0.70;;;30.20;40.10;;;;;;5033870;28;20753;-89
2022/09/25 04:53:42;;;;;;;0.70;0.70;;;29.70;39.90;;;;;;5033712;28;20380;-90
2022/09/25 04:56:12;;;;;;;0.73;0.70;;;29.80;40.50;;;;;;5033645;28;20706;-89
2022/09/25 04:58:42;;;;;;;1.23;0.75;;;30.20;39.80;;;;;;5033891;28;20374;-88
2022/09/25 05:01:10;;;;;;;0.88;0.70;;;30.10;38.90;;;;;;5034173;28;20460;-84
2022/09/25 05:03:37;;;;;;;1.05;0.70;;;29.70;40.10;;;;;;5035219;28;20373;-88
2022/09/25 05:06:04;;;;;;;0.70;0.70;;;29.30;40.10;;;;;;5033947;28;20382;-85
2022/09/25 05:08:31;;;;;;;1.50;0.73;;;29.40;40.10;;;;;;5033886;28;20401;-87
2022/09/25 05:10:58;;;;;;;0.80;0.80;;;29.70;39.80;;;;;;5034151;28;20378;-82
2022/09/25 05:13:27;;;;;;;3.50;2.30;;;30.00;39.50;;;;;;5033851;28;20381;-85
2022/09/25 05:15:56;;;;;;;0.85;0.70;;;29.70;40.60;;;;;;5033390;28;20529;-82
2022/09/25 05:18:24;;;;;;;1.35;0.80;;;29.90;39.70;;;;;;5033794;28;20461;-83
2022/09/25 05:20:53;;;;;;;1.25;0.70;;;30.00;39.30;;;;;;5033247;28;20370;-82
2022/09/25 05:23:21;;;;;;;0.70;0.70;;;29.90;39.40;;;;;;5033904;28;20409;-84
2022/09/25 05:26:00;;;;;;;0.70;0.68;;;29.90;38.40;;;;;;5037708;28;20464;-82
2022/09/25 05:28:29;;;;;;;1.70;0.90;;;29.40;39.70;;;;;;5034420;28;20901;-87
2022/09/25 05:31:02;;;;;;;0.97;0.80;;;29.60;40.00;;;;;;5033087;28;20385;-86
2022/09/25 05:33:30;;;;;;;0.83;0.67;;;29.90;39.10;;;;;;5034644;28;20373;-84
2022/09/25 05:36:01;;;;;;;1.00;0.80;;;30.20;38.60;;;;;;5033698;28;20385;-81
2022/09/25 05:38:30;;;;;;;0.70;0.70;;;29.90;39.70;;;;;;5033462;28;20369;-83
2022/09/25 05:41:05;;;;;;;1.30;0.70;;;29.70;39.10;;;;;;5033457;28;20378;-84
2022/09/25 05:43:33;;;;;;;1.42;0.75;;;29.50;40.60;;;;;;5016058;28;20374;-88
2022/09/25 05:46:01;;;;;;;1.80;0.80;;;29.60;39.20;;;;;;5032810;28;20409;-81
2022/09/25 05:48:28;;;;;;;0.90;0.90;;;30.10;39.50;;;;;;5032823;28;20405;-87
2022/09/25 05:50:56;;;;;;;1.02;0.80;;;30.50;39.40;;;;;;5032695;28;20800;-86
2022/09/25 05:53:23;;;;;;;1.23;1.00;;;30.90;38.90;;;;;;5032918;28;20385;-86
2022/09/25 05:55:52;;;;;;;1.10;1.00;;;31.40;38.70;;;;;;5032467;28;20741;-83
2022/09/25 05:58:20;;;;;;;1.15;1.05;;;31.30;37.80;;;;;;5033515;28;20699;-82
2022/09/25 06:00:47;;;;;;;1.30;1.02;;;31.00;37.50;;;;;;5032632;28;20369;-84
2022/09/25 06:03:15;;;;;;;1.05;1.00;;;30.60;38.30;;;;;;5032848;28;20377;-82
2022/09/25 06:05:45;;;;;;;2.50;1.38;;;30.00;39.00;;;;;;5032626;28;20377;-90
2022/09/25 06:08:13;;;;;;;1.83;1.70;;;29.90;39.20;;;;;;5033019;28;20813;-82
2022/09/25 06:10:42;;;;;;;2.10;1.30;;;30.10;39.90;;;;;;5032476;28;20400;-82
2022/09/25 06:13:09;;;;;;;1.65;1.30;;;30.10;39.90;;;;;;5029835;28;20373;-85
2022/09/25 06:15:40;;;;;;;1.35;1.20;;;30.00;39.90;;;;;;5032901;28;20428;-80
2022/09/25 06:18:08;;;;;;;1.40;1.30;;;30.30;39.60;;;;;;5032555;28;20392;-89
2022/09/25 06:20:35;;;;;;;1.20;1.10;;;30.30;39.80;;;;;;5032487;28;20407;-83
2022/09/25 06:23:03;;;;;;;1.20;1.10;;;30.30;39.70;;;;;;5014748;28;20395;-83
2022/09/25 06:25:31;;;;;;;1.10;1.00;;;30.50;38.50;;;;;;5032908;28;20376;-83
2022/09/25 06:28:00;;;;;;;1.85;1.17;;;30.60;38.80;;;;;;5033073;28;20921;-81
2022/09/25 06:30:33;;;;;;;2.27;1.20;;;30.60;39.30;;;;;;5029824;28;20386;-80
2022/09/25 06:33:00;;;;;;;1.33;1.00;;;30.20;39.20;;;;;;5032110;28;20569;-82
2022/09/25 06:35:28;;;;;;;1.40;1.15;;;30.10;39.00;;;;;;5032376;28;20381;-81
2022/09/25 06:38:00;;;;;;;1.10;1.00;;;30.20;38.80;;;;;;5032431;28;20790;-86
2022/09/25 06:40:30;;;;;;;1.20;1.10;;;30.10;39.10;;;;;;5032784;28;20464;-81
2022/09/25 06:43:01;;;;;;;2.45;1.30;;;30.00;39.50;;;;;;5032455;28;20369;-84
2022/09/25 06:45:34;;;;;;;5.30;1.15;;;29.90;39.30;;;;;;5032505;28;20370;-83
2022/09/25 06:48:07;;;;;;;1.13;0.90;;;29.70;39.50;;;;;;5029992;28;20516;-83
2022/09/25 06:50:45;;;;;;;0.90;0.90;;;29.60;39.60;;;;;;5035802;28;20919;-80
2022/09/25 06:53:13;;;;;;;1.85;1.00;;;29.20;40.00;;;;;;5036286;28;20833;-85
2022/09/25 06:55:40;;;;;;;2.10;1.13;;;28.60;43.00;;;;;;5018362;28;20393;-85
2022/09/25 06:58:10;;;;;;;2.88;1.48;;;27.50;46.60;;;;;;5035712;28;20428;-83
2022/09/25 07:00:37;;;;;;;3.42;1.38;;;26.70;49.20;;;;;;5036493;28;20811;-87
2022/09/25 07:05:50;;;;;;;2.63;1.40;;;25.60;52.10;;;;;;5036145;28;20368;-81
2022/09/25 07:08:21;;;;;;;3.60;1.52;;;25.30;53.00;;;;;;5035982;28;20417;-85
2022/09/25 07:10:49;;;;;;;2.90;1.33;;;24.80;53.70;;;;;;5035458;28;20370;-85
2022/09/25 07:13:25;;;;;;;3.65;1.40;;;24.00;55.50;;;;;;5035503;28;20373;-82
2022/09/25 07:15:54;;;;;;;2.88;1.30;;;23.60;57.40;;;;;;5035338;28;20373;-82
2022/09/25 07:18:22;;;;;;;2.35;1.30;;;23.30;57.80;;;;;;5035599;28;20369;-88
2022/09/25 07:20:51;;;;;;;2.93;1.40;;;23.10;59.10;;;;;;5035734;28;20755;-83
2022/09/25 07:23:21;;;;;;;3.37;1.30;;;22.60;59.60;;;;;;5017839;28;20461;-83
2022/09/25 07:25:48;;;;;;;2.90;1.30;;;22.10;60.40;;;;;;5035647;28;20464;-84
2022/09/25 07:28:18;;;;;;;2.67;1.30;;;21.60;62.50;;;;;;5035548;28;20903;-82
2022/09/25 07:30:48;;;;;;;2.90;1.30;;;21.00;63.90;;;;;;5035541;28;20460;-82
2022/09/25 07:33:15;;;;;;;2.88;1.38;;;20.50;65.70;;;;;;5036954;28;20842;-90
2022/09/25 07:35:42;;;;;;;2.15;1.35;;;20.00;67.40;;;;;;5037874;28;20376;-89
2022/09/25 07:38:09;;;;;;;2.47;1.33;;;19.70;68.30;;;;;;5041066;28;20465;-90
2022/09/25 07:40:36;;;;;;;2.95;1.42;;;19.50;69.80;;;;;;5038387;28;20931;-87
2022/09/25 07:43:04;;;;;;;3.70;1.42;;;19.30;70.50;;;;;;5017139;28;20741;-84
2022/09/25 07:45:31;;;;;;;2.53;1.60;;;19.10;71.80;;;;;;5035100;28;20838;-83
2022/09/25 07:48:02;;;;;;;3.00;1.60;;;18.90;73.00;;;;;;5035539;28;20393;-83
2022/09/25 07:50:31;;;;;;;3.05;1.45;;;18.80;74.20;;;;;;5035554;28;20381;-80
2022/09/25 07:52:58;;;;;;;2.63;1.80;;;18.70;76.70;;;;;;5043245;28;20405;-82
2022/09/25 07:55:28;;;;;;;4.70;2.60;;;18.60;78.60;;;;;;5044144;28;20393;-83
2022/09/25 07:57:59;;;;;;;4.32;3.42;;;18.50;81.50;;;;;;5036670;28;20369;-81
2022/09/25 08:00:26;;;;;;;5.30;3.35;;;18.40;84.20;;;;;;5033493;28;20734;-81
2022/09/25 08:02:57;;;;;;;4.13;2.85;;;18.20;86.00;;;;;;5034443;28;20413;-84
2022/09/25 08:05:25;;;;;;;4.68;2.60;;;18.10;89.00;;;;;;5034256;28;20385;-82
2022/09/25 08:07:53;;;;;;;2.90;1.90;;;18.00;90.50;;;;;;4999909;28;20409;-82
2022/09/25 08:10:21;;;;;;;3.92;1.75;;;17.90;91.80;;;;;;5034308;28;20370;-83
2022/09/25 08:12:48;;;;;;;2.83;1.50;;;17.80;92.90;;;;;;5034274;28;20713;-90
2022/09/25 08:15:15;;;;;;;3.55;1.70;;;17.70;94.00;;;;;;5035556;28;20409;-82
2022/09/25 08:17:43;;;;;;;4.40;1.93;;;17.60;94.50;;;;;;5034282;28;20377;-85
2022/09/25 08:20:10;;;;;;;3.33;2.00;;;17.50;95.90;;;;;;5034086;28;20772;-81
2022/09/25 08:22:37;;;;;;;3.63;1.98;;;17.40;96.70;;;;;;5030973;28;20763;-81
2022/09/25 08:25:04;;;;;;;4.05;2.92;;;17.40;97.80;;;;;;5033909;28;20396;-90
2022/09/25 08:27:39;;;;;;;4.30;3.08;;;17.30;97.80;;;;;;5033785;28;20377;-81
2022/09/25 08:30:09;;;;;;;3.90;2.90;;;17.20;98.10;;;;;;5034156;28;20400;-81
2022/09/25 08:32:36;;;;;;;2.20;1.80;;;17.10;98.60;;;;;;5033704;28;20394;-81
2022/09/25 08:35:04;;;;;;;4.35;2.00;;;17.00;99.30;;;;;;5034117;28;20381;-85
2022/09/25 08:37:31;;;;;;;3.07;2.10;;;17.00;99.50;;;;;;5034155;28;20374;-81
2022/09/25 08:39:59;;;;;;;4.53;2.10;;;17.00;99.90;;;;;;5034243;28;20377;-86
2022/09/25 08:42:36;;;;;;;3.00;1.90;;;16.90;99.80;;;;;;5033639;28;20393;-81
2022/09/25 08:50:44;;;;;;;3.78;1.80;;;16.90;99.90;;;;;;5034256;28;20884;-88
2022/09/25 08:53:25;;;;;;;3.50;1.80;;;16.90;99.90;;;;;;5030881;28;20374;-87
2022/09/25 08:58:45;;;;;;;2.67;1.67;;;16.80;99.90;;;;;;5034845;28;20412;-81
2022/09/25 09:01:28;;;;;;;7.20;1.90;;;16.90;99.90;;;;;;5034391;28;20385;-86
2022/09/25 09:04:06;;;;;;;5.50;1.60;;;16.80;99.90;;;;;;5035521;28;20460;-82
2022/09/25 09:06:36;;;;;;;2.40;1.80;;;16.70;99.90;;;;;;5017124;28;20550;-84
2022/09/25 09:09:23;;;;;;;3.65;1.80;;;16.60;99.90;;;;;;5043012;28;20393;-82
2022/09/25 09:12:06;;;;;;;3.72;1.90;;;16.70;99.90;;;;;;5033855;28;20366;-82
2022/09/25 09:14:39;;;;;;;5.22;2.10;;;16.70;99.90;;;;;;5035806;28;20378;-82
2022/09/25 09:17:24;;;;;;;3.47;2.00;;;16.70;99.90;;;;;;5034918;28;20401;-90
2022/09/25 09:20:05;;;;;;;4.35;2.60;;;16.70;99.90;;;;;;5037570;28;20370;-84
2022/09/25 09:22:44;;;;;;;7.78;4.72;;;16.70;99.90;;;;;;5039895;28;20437;-81
2022/09/25 09:25:23;;;;;;;5.13;3.50;;;16.70;99.90;;;;;;5038136;28;20365;-81
2022/09/25 09:28:44;;;;;;;6.75;5.05;;;16.60;99.90;;;;;;5040760;28;20385;-81
2022/09/25 09:31:13;;;;;;;5.45;4.03;;;16.60;99.90;;;;;;4982504;28;20949;-79
2022/09/25 09:33:49;;;;;;;9.33;5.03;;;16.50;99.90;;;;;;4963097;28;20389;-82
2022/09/25 09:36:25;;;;;;;10.73;6.60;;;16.50;99.90;;;;;;4979832;28;20727;-82
2022/09/25 09:38:58;;;;;;;9.23;4.82;;;16.50;99.90;;;;;;4971852;28;20903;-80
2022/09/25 09:41:39;;;;;;;4.45;2.00;;;16.50;99.90;;;;;;4971736;28;20443;-84
2022/09/25 09:44:38;;;;;;;4.40;2.40;;;16.50;99.90;;;;;;4971753;28;20853;-80
2022/09/25 09:47:38;;;;;;;4.32;2.00;;;16.40;99.90;;;;;;4971707;28;20437;-86
2022/09/25 09:50:19;;;;;;;5.00;2.10;;;16.40;99.90;;;;;;4972641;28;20504;-80
2022/09/25 09:52:52;;;;;;;4.60;2.30;;;16.30;99.90;;;;;;4972816;28;20379;-81
2022/09/25 09:55:41;;;;;;;5.33;2.60;;;16.30;99.90;;;;;;4972698;28;20445;-85
2022/09/25 09:58:42;;;;;;;5.55;2.50;;;16.30;99.90;;;;;;4972455;28;20402;-82
2022/09/25 10:01:12;;;;;;;6.55;2.33;;;16.20;99.90;;;;;;4979835;28;20675;-79
2022/09/25 10:03:41;;;;;;;6.05;2.63;;;16.10;99.90;;;;;;5032246;28;20366;-82
2022/09/25 10:06:11;;;;;;;6.38;3.05;;;16.00;99.90;;;;;;5032354;28;20386;-81
2022/09/25 10:08:40;;;;;;;5.18;2.90;;;15.90;99.90;;;;;;5033459;28;20398;-82
2022/09/25 10:11:19;;;;;;;16.33;11.52;;;15.80;99.90;;;;;;5032388;28;20792;-81
2022/09/25 10:13:47;;;;;;;14.63;9.80;;;15.60;99.90;;;;;;5034449;28;20456;-82
2022/09/25 10:16:19;;;;;;;10.05;6.10;;;15.50;99.90;;;;;;5033247;28;20432;-82
2022/09/25 10:19:18;;;;;;;8.43;4.13;;;15.40;99.90;;;;;;5032380;28;20436;-87
2022/09/25 10:22:03;;;;;;;3.95;2.58;;;15.20;99.90;;;;;;5026149;28;20902;-85
2022/09/25 10:25:01;;;;;;;5.95;2.80;;;15.20;99.90;;;;;;5034936;28;20386;-82
2022/09/25 10:27:31;;;;;;;4.40;2.60;;;15.10;99.90;;;;;;5036262;28;20453;-80
2022/09/25 10:30:02;;;;;;;6.80;2.90;;;15.00;99.90;;;;;;5036015;28;20392;-80
2022/09/25 10:32:31;;;;;;;4.22;2.70;;;14.90;99.90;;;;;;5035594;28;20390;-88
2022/09/25 10:34:59;;;;;;;6.32;2.50;;;14.80;99.90;;;;;;5035835;28;20381;-80
2022/09/25 10:37:33;;;;;;;5.50;2.50;;;14.70;99.90;;;;;;5036222;28;20862;-80
2022/09/25 10:40:28;;;;;;;5.00;2.60;;;14.70;99.90;;;;;;5036175;28;20377;-80
2022/09/25 10:43:13;;;;;;;6.80;2.45;;;14.60;99.90;;;;;;5035738;28;20892;-80
2022/09/25 10:45:41;;;;;;;4.93;2.60;;;14.70;99.90;;;;;;5018043;28;20468;-79
2022/09/25 10:51:35;;;;;;;5.00;2.40;;;14.70;99.90;;;;;;4976327;28;20925;-88
2022/09/25 10:54:15;;;;;;;6.90;2.80;;;14.70;99.90;;;;;;4980527;28;20430;-85
2022/09/25 10:56:42;;;;;;;5.70;2.60;;;14.60;99.90;;;;;;4979623;28;20414;-85
2022/09/25 10:59:29;;;;;;;5.25;2.50;;;14.60;99.90;;;;;;4976392;28;20387;-82
2022/09/25 11:01:56;;;;;;;7.25;2.70;;;14.60;99.90;;;;;;4975354;28;20429;-82
2022/09/25 11:04:44;;;;;;;7.77;2.47;;;14.50;99.90;;;;;;4979422;28;20463;-80
2022/09/25 11:07:17;;;;;;;5.85;2.70;;;14.50;99.90;;;;;;4978499;28;20390;-84
2022/09/25 11:09:45;;;;;;;5.47;2.60;;;14.50;99.90;;;;;;4974742;28;20478;-80
2022/09/25 11:12:24;;;;;;;7.55;2.72;;;14.40;99.90;;;;;;4974760;28;20382;-80
2022/09/25 11:15:02;;;;;;;4.80;2.55;;;14.40;99.90;;;;;;4975096;28;20367;-81
2022/09/25 11:17:32;;;;;;;5.75;2.40;;;14.30;99.90;;;;;;4974218;28;20425;-82
2022/09/25 11:20:21;;;;;;;5.83;2.57;;;14.20;99.90;;;;;;4958215;28;21009;-83
2022/09/25 11:23:22;;;;;;;7.10;2.70;;;14.10;99.90;;;;;;5017484;28;20386;-84
2022/09/25 11:26:09;;;;;;;5.93;2.70;;;14.10;99.90;;;;;;5019506;28;20373;-79
2022/09/25 11:28:51;;;;;;;6.15;2.80;;;14.10;99.90;;;;;;5035307;28;20401;-80
2022/09/25 11:31:50;;;;;;;6.63;2.90;;;14.10;99.90;;;;;;5035133;28;20373;-80
2022/09/25 11:34:46;;;;;;;6.57;2.70;;;14.00;99.90;;;;;;5030839;28;20904;-80
2022/09/25 11:37:38;;;;;;;7.10;2.70;;;14.00;99.90;;;;;;5012213;28;20900;-87
2022/09/25 11:43:39;;;;;;;4.35;2.60;;;13.80;99.90;;;;;;5033959;28;20361;-83
2022/09/25 11:46:30;;;;;;;5.47;2.83;;;13.80;99.90;;;;;;5033616;28;20416;-84
2022/09/25 11:49:09;;;;;;;6.73;3.30;;;13.70;99.90;;;;;;4973053;28;20925;-81
2022/09/25 11:52:15;;;;;;;7.97;4.10;;;13.70;99.90;;;;;;4973718;28;20806;-83
2022/09/25 11:54:56;;;;;;;10.10;5.05;;;13.60;99.90;;;;;;4973679;28;20847;-81
2022/09/25 11:57:30;;;;;;;10.48;5.60;;;13.60;99.90;;;;;;4973208;28;20474;-81
2022/09/25 12:00:13;;;;;;;10.07;5.90;;;13.50;99.90;;;;;;4972843;28;20383;-83
2022/09/25 12:03:09;;;;;;;10.10;5.90;;;13.40;99.90;;;;;;4973131;28;20367;-80
2022/09/25 12:06:20;;;;;;;10.40;6.15;;;13.50;99.90;;;;;;4972601;28;20390;-87
2022/09/25 12:09:12;;;;;;;11.30;6.50;;;13.40;99.90;;;;;;4972373;28;20406;-79
2022/09/25 12:12:09;;;;;;;10.30;7.10;;;13.40;99.90;;;;;;4952872;29;20372;-83
2022/09/25 12:15:02;;;;;;;12.23;7.43;;;13.30;99.90;;;;;;4952712;29;20423;-89
2022/09/25 12:17:32;;;;;;;13.32;6.95;;;13.30;99.90;;;;;;4953579;29;20423;-79
2022/09/25 12:20:19;;;;;;;12.07;7.50;;;13.20;99.90;;;;;;4952991;29;20786;-80
2022/09/25 12:22:52;;;;;;;9.25;6.63;;;13.20;99.90;;;;;;4953284;29;20388;-78
2022/09/25 12:25:33;;;;;;;11.30;6.80;;;13.20;99.90;;;;;;4966298;28;20438;-81
2022/09/25 12:28:06;;;;;;;11.40;6.50;;;13.10;99.90;;;;;;5010977;28;20453;-80
2022/09/25 12:33:58;;;;;;;9.27;5.20;;;13.10;99.90;;;;;;5087981;27;20773;-85
2022/09/25 12:37:19;;;;;;;9.00;5.30;;;13.00;99.90;;;;;;5084931;28;20400;-86
2022/09/25 12:40:01;;;;;;;8.45;6.00;;;13.00;99.90;;;;;;5065250;28;20376;-81
2022/09/25 12:42:48;;;;;;;10.02;6.05;;;13.00;99.90;;;;;;5065247;28;20890;-81
2022/09/25 12:45:21;;;;;;;8.05;5.60;;;12.90;99.90;;;;;;5066893;28;20425;-84
2022/09/25 12:48:02;;;;;;;9.25;5.50;;;12.90;99.90;;;;;;5067786;28;20470;-84
2022/09/25 12:50:38;;;;;;;10.95;5.47;;;13.00;99.90;;;;;;5065305;28;20462;-84
2022/09/25 12:53:30;;;;;;;9.68;5.38;;;13.00;99.90;;;;;;5048289;28;20414;-84
2022/09/25 12:56:12;;;;;;;10.35;5.30;;;13.00;99.90;;;;;;5065116;28;20958;-89
2022/09/25 12:58:56;;;;;;;8.18;5.22;;;13.00;99.90;;;;;;5050421;28;20387;-88
2022/09/25 13:01:36;;;;;;;8.23;4.77;;;12.90;99.90;;;;;;5064784;28;20894;-88
2022/09/25 13:04:19;;;;;;;8.20;4.70;;;12.80;99.90;;;;;;5031726;28;20375;-83
2022/09/25 13:07:36;;;;;;;8.30;4.32;;;12.80;99.90;;;;;;5064402;28;20389;-84
2022/09/25 13:10:36;;;;;;;7.93;4.05;;;12.70;99.90;;;;;;5015552;28;20389;-83
2022/09/25 13:13:27;;;;;;;8.75;4.25;;;12.80;99.90;;;;;;4985561;28;20423;-84
2022/09/25 13:16:00;;;;;;;6.35;3.95;;;12.80;99.90;;;;;;5022657;28;20426;-85
2022/09/25 13:18:29;;;;;;;5.82;3.88;;;12.70;99.90;;;;;;5027692;28;20469;-84
2022/09/25 13:21:03;;;;;;;7.30;4.00;;;12.70;99.90;;;;;;5036755;28;20460;-83
2022/09/25 13:23:33;;;;;;;7.85;4.05;;;12.60;99.90;;;;;;5033915;28;20390;-81
2022/09/25 13:26:16;;;;;;;7.32;4.30;;;12.70;99.90;;;;;;5023415;28;20402;-81
2022/09/25 13:28:57;;;;;;;8.03;4.33;;;12.70;99.90;;;;;;5009969;28;20383;-81
2022/09/25 13:31:27;;;;;;;8.85;4.50;;;12.60;99.90;;;;;;5040889;28;21011;-80
2022/09/25 13:34:00;;;;;;;9.38;4.65;;;12.60;99.90;;;;;;5026333;28;20456;-82
2022/09/25 13:36:33;;;;;;;8.00;4.68;;;12.50;99.90;;;;;;5029506;28;20385;-82
2022/09/25 13:42:15;;;;;;;8.90;4.53;;;12.50;99.90;;;;;;5031599;28;20365;-85
2022/09/25 13:44:42;;;;;;;8.82;4.88;;;12.50;99.90;;;;;;5022492;28;20392;-83
2022/09/25 13:47:24;;;;;;;6.95;4.30;;;12.40;99.90;;;;;;5050257;28;20422;-84
2022/09/25 13:50:03;;;;;;;7.90;4.60;;;12.30;99.90;;;;;;5063810;28;21917;-80
2022/09/25 13:56:02;;;;;;;9.13;5.15;;;12.30;99.90;;;;;;5052252;28;20431;-84
2022/09/25 13:59:02;;;;;;;8.37;4.80;;;12.20;99.90;;;;;;5071095;28;20404;-85